sensor_id;sensor_type;location;lat;lon;timestamp;P1;durP1;ratioP1;P2;durP2;ratioP2
8737;SDS011;4405;49.272;8.590;2023-07-28T00:00:03;7.23;;;4.47;;
8737;SDS011;4405;49.272;8.590;2023-07-28T00:02:30;6.00;;;4.13;;
8737;SDS011;4405;49.272;8.590;2023-07-28T00:04:57;4.20;;;3.93;;
8737;SDS011;4405;49.272;8.590;2023-07-28T00:07:24;7.37;;;4.13;;
8737;SDS011;4405;49.272;8.590;2023-07-28T00:09:51;5.37;;;4.50;;
8737;SDS011;4405;49.272;8.590;2023-07-28T00:12:17;4.67;;;4.20;;
8737;SDS011;4405;49.272;8.590;2023-07-28T00:14:43;7.23;;;4.50;;
8737;SDS011;4405;49.272;8.590;2023-07-28T00:17:10;4.67;;;4.20;;
8737;SDS011;4405;49.272;8.590;2023-07-28T00:19:36;5.90;;;4.43;;
8737;SDS011;4405;49.272;8.590;2023-07-28T00:22:02;6.10;;;4.67;;
8737;SDS011;4405;49.272;8.590;2023-07-28T00:24:30;9.60;;;4.87;;
8737;SDS011;4405;49.272;8.590;2023-07-28T00:26:56;4.90;;;4.10;;
8737;SDS011;4405;49.272;8.590;2023-07-28T00:29:23;6.70;;;4.50;;
8737;SDS011;4405;49.272;8.590;2023-07-28T00:31:50;7.07;;;4.53;;
8737;SDS011;4405;49.272;8.590;2023-07-28T00:34:18;6.03;;;3.97;;
8737;SDS011;4405;49.272;8.590;2023-07-28T00:36:44;5.57;;;4.67;;
8737;SDS011;4405;49.272;8.590;2023-07-28T00:39:10;6.60;;;4.77;;
8737;SDS011;4405;49.272;8.590;2023-07-28T00:41:38;10.33;;;4.87;;
8737;SDS011;4405;49.272;8.590;2023-07-28T00:44:04;5.00;;;4.50;;
8737;SDS011;4405;49.272;8.590;2023-07-28T00:46:31;5.87;;;4.90;;
8737;SDS011;4405;49.272;8.590;2023-07-28T00:48:57;5.77;;;4.70;;
8737;SDS011;4405;49.272;8.590;2023-07-28T00:51:23;5.30;;;4.30;;
8737;SDS011;4405;49.272;8.590;2023-07-28T00:53:50;6.57;;;4.60;;
8737;SDS011;4405;49.272;8.590;2023-07-28T00:56:18;8.30;;;4.70;;
8737;SDS011;4405;49.272;8.590;2023-07-28T00:58:46;5.33;;;4.60;;
8737;SDS011;4405;49.272;8.590;2023-07-28T01:01:12;7.13;;;4.47;;
8737;SDS011;4405;49.272;8.590;2023-07-28T01:03:39;5.70;;;4.63;;
8737;SDS011;4405;49.272;8.590;2023-07-28T01:06:10;7.20;;;4.60;;
8737;SDS011;4405;49.272;8.590;2023-07-28T01:08:38;5.80;;;4.57;;
8737;SDS011;4405;49.272;8.590;2023-07-28T01:11:07;4.87;;;4.47;;
8737;SDS011;4405;49.272;8.590;2023-07-28T01:13:35;5.37;;;4.33;;
8737;SDS011;4405;49.272;8.590;2023-07-28T01:16:03;4.63;;;4.30;;
8737;SDS011;4405;49.272;8.590;2023-07-28T01:18:29;4.77;;;4.33;;
8737;SDS011;4405;49.272;8.590;2023-07-28T01:20:56;4.83;;;4.33;;
8737;SDS011;4405;49.272;8.590;2023-07-28T01:23:26;4.83;;;4.20;;
8737;SDS011;4405;49.272;8.590;2023-07-28T01:25:57;6.60;;;4.40;;
8737;SDS011;4405;49.272;8.590;2023-07-28T01:28:27;5.80;;;4.43;;
8737;SDS011;4405;49.272;8.590;2023-07-28T01:30:54;5.33;;;4.20;;
8737;SDS011;4405;49.272;8.590;2023-07-28T01:33:21;7.50;;;4.47;;
8737;SDS011;4405;49.272;8.590;2023-07-28T01:35:47;7.33;;;4.90;;
8737;SDS011;4405;49.272;8.590;2023-07-28T01:38:13;5.57;;;4.30;;
8737;SDS011;4405;49.272;8.590;2023-07-28T01:40:41;6.17;;;4.73;;
8737;SDS011;4405;49.272;8.590;2023-07-28T01:43:07;5.63;;;5.03;;
8737;SDS011;4405;49.272;8.590;2023-07-28T01:45:35;5.23;;;4.50;;
8737;SDS011;4405;49.272;8.590;2023-07-28T01:48:01;6.57;;;4.87;;
8737;SDS011;4405;49.272;8.590;2023-07-28T01:50:27;11.87;;;5.20;;
8737;SDS011;4405;49.272;8.590;2023-07-28T01:52:54;5.83;;;4.50;;
8737;SDS011;4405;49.272;8.590;2023-07-28T01:55:21;8.50;;;4.67;;
8737;SDS011;4405;49.272;8.590;2023-07-28T01:57:51;5.13;;;4.60;;
8737;SDS011;4405;49.272;8.590;2023-07-28T02:00:18;7.20;;;4.07;;
8737;SDS011;4405;49.272;8.590;2023-07-28T02:02:45;4.23;;;3.90;;
8737;SDS011;4405;49.272;8.590;2023-07-28T02:05:12;6.20;;;4.40;;
8737;SDS011;4405;49.272;8.590;2023-07-28T02:07:38;4.70;;;3.70;;
8737;SDS011;4405;49.272;8.590;2023-07-28T02:10:05;4.30;;;3.90;;
8737;SDS011;4405;49.272;8.590;2023-07-28T02:12:31;4.90;;;3.90;;
8737;SDS011;4405;49.272;8.590;2023-07-28T02:14:57;4.10;;;3.70;;
8737;SDS011;4405;49.272;8.590;2023-07-28T02:17:24;3.40;;;3.20;;
8737;SDS011;4405;49.272;8.590;2023-07-28T02:19:51;4.03;;;3.40;;
8737;SDS011;4405;49.272;8.590;2023-07-28T02:22:18;4.70;;;3.60;;
8737;SDS011;4405;49.272;8.590;2023-07-28T02:24:44;4.30;;;3.37;;
8737;SDS011;4405;49.272;8.590;2023-07-28T02:27:10;5.07;;;3.40;;
8737;SDS011;4405;49.272;8.590;2023-07-28T02:29:37;3.27;;;3.07;;
8737;SDS011;4405;49.272;8.590;2023-07-28T02:32:04;3.10;;;2.77;;
8737;SDS011;4405;49.272;8.590;2023-07-28T02:34:30;2.87;;;2.77;;
8737;SDS011;4405;49.272;8.590;2023-07-28T02:36:58;2.77;;;2.67;;
8737;SDS011;4405;49.272;8.590;2023-07-28T02:39:24;3.37;;;3.03;;
8737;SDS011;4405;49.272;8.590;2023-07-28T02:41:51;3.13;;;2.93;;
8737;SDS011;4405;49.272;8.590;2023-07-28T02:44:18;3.53;;;3.23;;
8737;SDS011;4405;49.272;8.590;2023-07-28T02:46:44;3.20;;;3.00;;
8737;SDS011;4405;49.272;8.590;2023-07-28T02:49:10;3.10;;;2.97;;
8737;SDS011;4405;49.272;8.590;2023-07-28T02:51:37;2.73;;;2.60;;
8737;SDS011;4405;49.272;8.590;2023-07-28T02:54:05;2.80;;;2.60;;
8737;SDS011;4405;49.272;8.590;2023-07-28T02:56:32;4.30;;;2.77;;
8737;SDS011;4405;49.272;8.590;2023-07-28T02:59:02;2.60;;;2.40;;
8737;SDS011;4405;49.272;8.590;2023-07-28T03:01:29;5.23;;;2.63;;
8737;SDS011;4405;49.272;8.590;2023-07-28T03:03:58;3.67;;;2.77;;
8737;SDS011;4405;49.272;8.590;2023-07-28T03:06:24;3.27;;;2.67;;
8737;SDS011;4405;49.272;8.590;2023-07-28T03:08:50;2.57;;;2.37;;
8737;SDS011;4405;49.272;8.590;2023-07-28T03:11:18;2.57;;;2.40;;
8737;SDS011;4405;49.272;8.590;2023-07-28T03:13:44;2.33;;;2.20;;
8737;SDS011;4405;49.272;8.590;2023-07-28T03:16:11;2.60;;;2.40;;
8737;SDS011;4405;49.272;8.590;2023-07-28T03:18:37;3.97;;;2.30;;
8737;SDS011;4405;49.272;8.590;2023-07-28T03:21:03;2.30;;;2.20;;
8737;SDS011;4405;49.272;8.590;2023-07-28T03:23:30;2.30;;;2.10;;
8737;SDS011;4405;49.272;8.590;2023-07-28T03:25:56;3.53;;;2.67;;
8737;SDS011;4405;49.272;8.590;2023-07-28T03:28:24;2.97;;;2.67;;
8737;SDS011;4405;49.272;8.590;2023-07-28T03:30:50;2.57;;;2.40;;
8737;SDS011;4405;49.272;8.590;2023-07-28T03:33:17;2.30;;;2.27;;
8737;SDS011;4405;49.272;8.590;2023-07-28T03:35:43;2.80;;;2.60;;
8737;SDS011;4405;49.272;8.590;2023-07-28T03:38:09;3.10;;;2.80;;
8737;SDS011;4405;49.272;8.590;2023-07-28T03:40:36;2.43;;;2.33;;
8737;SDS011;4405;49.272;8.590;2023-07-28T03:43:02;2.60;;;2.50;;
8737;SDS011;4405;49.272;8.590;2023-07-28T03:45:30;2.90;;;2.70;;
8737;SDS011;4405;49.272;8.590;2023-07-28T03:47:58;2.60;;;2.40;;
8737;SDS011;4405;49.272;8.590;2023-07-28T03:50:24;2.80;;;2.70;;
8737;SDS011;4405;49.272;8.590;2023-07-28T03:52:51;2.90;;;2.63;;
8737;SDS011;4405;49.272;8.590;2023-07-28T03:55:17;3.13;;;2.93;;
8737;SDS011;4405;49.272;8.590;2023-07-28T03:57:44;3.40;;;2.73;;
8737;SDS011;4405;49.272;8.590;2023-07-28T04:00:11;3.33;;;3.03;;
8737;SDS011;4405;49.272;8.590;2023-07-28T04:02:40;3.03;;;2.90;;
8737;SDS011;4405;49.272;8.590;2023-07-28T04:05:06;3.73;;;3.00;;
8737;SDS011;4405;49.272;8.590;2023-07-28T04:07:33;3.37;;;3.07;;
8737;SDS011;4405;49.272;8.590;2023-07-28T04:09:59;3.83;;;2.80;;
8737;SDS011;4405;49.272;8.590;2023-07-28T04:12:25;5.37;;;3.03;;
8737;SDS011;4405;49.272;8.590;2023-07-28T04:14:54;3.83;;;2.90;;
8737;SDS011;4405;49.272;8.590;2023-07-28T04:17:21;3.27;;;3.07;;
8737;SDS011;4405;49.272;8.590;2023-07-28T04:19:48;3.93;;;3.30;;
8737;SDS011;4405;49.272;8.590;2023-07-28T04:22:15;3.13;;;2.80;;
8737;SDS011;4405;49.272;8.590;2023-07-28T04:24:46;3.33;;;3.00;;
8737;SDS011;4405;49.272;8.590;2023-07-28T04:27:12;2.93;;;2.73;;
8737;SDS011;4405;49.272;8.590;2023-07-28T04:29:39;3.33;;;3.10;;
8737;SDS011;4405;49.272;8.590;2023-07-28T04:32:05;2.83;;;2.70;;
8737;SDS011;4405;49.272;8.590;2023-07-28T04:34:32;4.87;;;2.80;;
8737;SDS011;4405;49.272;8.590;2023-07-28T04:37:00;4.20;;;2.80;;
8737;SDS011;4405;49.272;8.590;2023-07-28T04:39:26;3.30;;;3.00;;
8737;SDS011;4405;49.272;8.590;2023-07-28T04:41:52;4.13;;;3.17;;
8737;SDS011;4405;49.272;8.590;2023-07-28T04:44:19;3.13;;;3.00;;
8737;SDS011;4405;49.272;8.590;2023-07-28T04:46:45;3.50;;;3.20;;
8737;SDS011;4405;49.272;8.590;2023-07-28T04:49:12;3.97;;;3.10;;
8737;SDS011;4405;49.272;8.590;2023-07-28T04:51:39;3.20;;;3.00;;
8737;SDS011;4405;49.272;8.590;2023-07-28T04:54:06;3.57;;;2.63;;
8737;SDS011;4405;49.272;8.590;2023-07-28T04:56:33;3.60;;;2.90;;
8737;SDS011;4405;49.272;8.590;2023-07-28T04:58:59;3.10;;;2.90;;
8737;SDS011;4405;49.272;8.590;2023-07-28T05:01:25;3.07;;;2.77;;
8737;SDS011;4405;49.272;8.590;2023-07-28T05:03:54;2.90;;;2.77;;
8737;SDS011;4405;49.272;8.590;2023-07-28T05:06:22;4.93;;;2.80;;
8737;SDS011;4405;49.272;8.590;2023-07-28T05:08:49;3.80;;;2.30;;
8737;SDS011;4405;49.272;8.590;2023-07-28T05:11:16;5.63;;;2.43;;
8737;SDS011;4405;49.272;8.590;2023-07-28T05:13:43;4.53;;;2.60;;
8737;SDS011;4405;49.272;8.590;2023-07-28T05:16:09;4.67;;;2.30;;
8737;SDS011;4405;49.272;8.590;2023-07-28T05:18:35;3.03;;;2.73;;
8737;SDS011;4405;49.272;8.590;2023-07-28T05:21:02;3.97;;;3.00;;
8737;SDS011;4405;49.272;8.590;2023-07-28T05:23:28;3.53;;;3.23;;
8737;SDS011;4405;49.272;8.590;2023-07-28T05:25:54;5.57;;;3.30;;
8737;SDS011;4405;49.272;8.590;2023-07-28T05:28:22;4.93;;;3.70;;
8737;SDS011;4405;49.272;8.590;2023-07-28T05:30:48;4.10;;;3.80;;
8737;SDS011;4405;49.272;8.590;2023-07-28T05:33:15;4.03;;;3.63;;
8737;SDS011;4405;49.272;8.590;2023-07-28T05:35:41;4.13;;;3.83;;
8737;SDS011;4405;49.272;8.590;2023-07-28T05:38:10;4.60;;;4.13;;
8737;SDS011;4405;49.272;8.590;2023-07-28T05:40:36;4.53;;;4.23;;
8737;SDS011;4405;49.272;8.590;2023-07-28T05:43:03;4.77;;;4.30;;
8737;SDS011;4405;49.272;8.590;2023-07-28T05:45:30;7.13;;;4.50;;
8737;SDS011;4405;49.272;8.590;2023-07-28T05:47:57;5.63;;;4.30;;
8737;SDS011;4405;49.272;8.590;2023-07-28T05:50:23;7.47;;;4.90;;
8737;SDS011;4405;49.272;8.590;2023-07-28T05:52:49;5.07;;;4.57;;
8737;SDS011;4405;49.272;8.590;2023-07-28T05:55:16;5.00;;;4.43;;
8737;SDS011;4405;49.272;8.590;2023-07-28T05:57:42;5.50;;;5.00;;
8737;SDS011;4405;49.272;8.590;2023-07-28T06:00:09;6.33;;;4.93;;
8737;SDS011;4405;49.272;8.590;2023-07-28T06:02:38;6.80;;;4.60;;
8737;SDS011;4405;49.272;8.590;2023-07-28T06:05:05;5.07;;;4.60;;
8737;SDS011;4405;49.272;8.590;2023-07-28T06:07:31;4.93;;;4.40;;
8737;SDS011;4405;49.272;8.590;2023-07-28T06:09:57;4.77;;;4.30;;
8737;SDS011;4405;49.272;8.590;2023-07-28T06:12:24;5.07;;;4.57;;
8737;SDS011;4405;49.272;8.590;2023-07-28T06:14:50;5.40;;;4.47;;
8737;SDS011;4405;49.272;8.590;2023-07-28T06:17:16;4.23;;;3.93;;
8737;SDS011;4405;49.272;8.590;2023-07-28T06:19:44;4.70;;;4.30;;
8737;SDS011;4405;49.272;8.590;2023-07-28T06:22:10;3.73;;;3.43;;
8737;SDS011;4405;49.272;8.590;2023-07-28T06:24:37;3.33;;;2.90;;
8737;SDS011;4405;49.272;8.590;2023-07-28T06:27:03;3.13;;;2.90;;
8737;SDS011;4405;49.272;8.590;2023-07-28T06:29:33;2.87;;;2.67;;
8737;SDS011;4405;49.272;8.590;2023-07-28T06:31:59;3.80;;;2.50;;
8737;SDS011;4405;49.272;8.590;2023-07-28T06:34:26;3.30;;;2.57;;
8737;SDS011;4405;49.272;8.590;2023-07-28T06:36:54;3.00;;;2.80;;
8737;SDS011;4405;49.272;8.590;2023-07-28T06:39:20;2.63;;;2.50;;
8737;SDS011;4405;49.272;8.590;2023-07-28T06:41:46;5.63;;;2.60;;
8737;SDS011;4405;49.272;8.590;2023-07-28T06:44:12;2.80;;;2.60;;
8737;SDS011;4405;49.272;8.590;2023-07-28T06:46:39;2.70;;;2.60;;
8737;SDS011;4405;49.272;8.590;2023-07-28T06:49:05;2.80;;;2.50;;
8737;SDS011;4405;49.272;8.590;2023-07-28T06:51:31;2.67;;;2.47;;
8737;SDS011;4405;49.272;8.590;2023-07-28T06:54:00;2.80;;;2.57;;
8737;SDS011;4405;49.272;8.590;2023-07-28T06:56:28;3.30;;;2.80;;
8737;SDS011;4405;49.272;8.590;2023-07-28T06:58:55;2.90;;;2.80;;
8737;SDS011;4405;49.272;8.590;2023-07-28T07:01:21;2.90;;;2.67;;
8737;SDS011;4405;49.272;8.590;2023-07-28T07:03:47;2.70;;;2.53;;
8737;SDS011;4405;49.272;8.590;2023-07-28T07:06:14;2.97;;;2.87;;
8737;SDS011;4405;49.272;8.590;2023-07-28T07:08:40;2.83;;;2.67;;
8737;SDS011;4405;49.272;8.590;2023-07-28T07:11:08;6.77;;;2.80;;
8737;SDS011;4405;49.272;8.590;2023-07-28T07:13:34;2.70;;;2.50;;
8737;SDS011;4405;49.272;8.590;2023-07-28T07:16:00;3.00;;;2.30;;
8737;SDS011;4405;49.272;8.590;2023-07-28T07:18:27;2.30;;;2.20;;
8737;SDS011;4405;49.272;8.590;2023-07-28T07:20:53;2.40;;;2.30;;
8737;SDS011;4405;49.272;8.590;2023-07-28T07:23:20;2.47;;;2.37;;
8737;SDS011;4405;49.272;8.590;2023-07-28T07:25:48;2.47;;;2.33;;
8737;SDS011;4405;49.272;8.590;2023-07-28T07:28:16;2.90;;;2.70;;
8737;SDS011;4405;49.272;8.590;2023-07-28T07:30:42;2.50;;;2.40;;
8737;SDS011;4405;49.272;8.590;2023-07-28T07:33:09;2.90;;;2.70;;
8737;SDS011;4405;49.272;8.590;2023-07-28T07:35:35;2.80;;;2.70;;
8737;SDS011;4405;49.272;8.590;2023-07-28T07:38:02;2.70;;;2.50;;
8737;SDS011;4405;49.272;8.590;2023-07-28T07:40:28;2.90;;;2.70;;
8737;SDS011;4405;49.272;8.590;2023-07-28T07:42:55;3.17;;;2.90;;
8737;SDS011;4405;49.272;8.590;2023-07-28T07:45:22;2.60;;;2.50;;
8737;SDS011;4405;49.272;8.590;2023-07-28T07:47:49;3.00;;;2.50;;
8737;SDS011;4405;49.272;8.590;2023-07-28T07:50:15;2.73;;;2.53;;
8737;SDS011;4405;49.272;8.590;2023-07-28T07:52:41;3.10;;;2.90;;
8737;SDS011;4405;49.272;8.590;2023-07-28T07:55:08;2.93;;;2.80;;
8737;SDS011;4405;49.272;8.590;2023-07-28T07:57:35;2.73;;;2.63;;
8737;SDS011;4405;49.272;8.590;2023-07-28T08:00:02;3.00;;;2.90;;
8737;SDS011;4405;49.272;8.590;2023-07-28T08:02:30;2.77;;;2.57;;
8737;SDS011;4405;49.272;8.590;2023-07-28T08:04:56;2.83;;;2.60;;
8737;SDS011;4405;49.272;8.590;2023-07-28T08:07:23;2.70;;;2.60;;
8737;SDS011;4405;49.272;8.590;2023-07-28T08:09:49;2.83;;;2.73;;
8737;SDS011;4405;49.272;8.590;2023-07-28T08:12:16;2.57;;;2.47;;
8737;SDS011;4405;49.272;8.590;2023-07-28T08:14:42;2.67;;;2.47;;
8737;SDS011;4405;49.272;8.590;2023-07-28T08:17:09;2.83;;;2.50;;
8737;SDS011;4405;49.272;8.590;2023-07-28T08:19:36;2.30;;;2.20;;
8737;SDS011;4405;49.272;8.590;2023-07-28T08:22:03;2.77;;;2.53;;
8737;SDS011;4405;49.272;8.590;2023-07-28T08:24:29;4.13;;;2.57;;
8737;SDS011;4405;49.272;8.590;2023-07-28T08:26:56;2.67;;;2.50;;
8737;SDS011;4405;49.272;8.590;2023-07-28T08:29:22;4.80;;;3.00;;
8737;SDS011;4405;49.272;8.590;2023-07-28T08:31:49;3.57;;;2.60;;
8737;SDS011;4405;49.272;8.590;2023-07-28T08:34:15;2.57;;;2.27;;
8737;SDS011;4405;49.272;8.590;2023-07-28T08:36:43;2.27;;;2.20;;
8737;SDS011;4405;49.272;8.590;2023-07-28T08:39:10;2.57;;;2.47;;
8737;SDS011;4405;49.272;8.590;2023-07-28T08:41:36;3.10;;;2.40;;
8737;SDS011;4405;49.272;8.590;2023-07-28T08:44:03;2.40;;;2.30;;
8737;SDS011;4405;49.272;8.590;2023-07-28T08:46:29;2.10;;;2.00;;
8737;SDS011;4405;49.272;8.590;2023-07-28T08:48:59;2.10;;;2.03;;
8737;SDS011;4405;49.272;8.590;2023-07-28T08:51:26;2.97;;;2.30;;
8737;SDS011;4405;49.272;8.590;2023-07-28T08:53:53;2.30;;;2.10;;
8737;SDS011;4405;49.272;8.590;2023-07-28T08:56:20;3.00;;;2.30;;
8737;SDS011;4405;49.272;8.590;2023-07-28T08:58:46;2.27;;;2.17;;
8737;SDS011;4405;49.272;8.590;2023-07-28T09:01:15;2.10;;;2.03;;
8737;SDS011;4405;49.272;8.590;2023-07-28T09:03:41;2.30;;;2.20;;
8737;SDS011;4405;49.272;8.590;2023-07-28T09:06:08;2.33;;;2.23;;
8737;SDS011;4405;49.272;8.590;2023-07-28T09:08:35;2.30;;;2.20;;
8737;SDS011;4405;49.272;8.590;2023-07-28T09:11:03;2.67;;;1.90;;
8737;SDS011;4405;49.272;8.590;2023-07-28T09:13:35;2.10;;;1.97;;
8737;SDS011;4405;49.272;8.590;2023-07-28T09:16:03;2.20;;;2.10;;
8737;SDS011;4405;49.272;8.590;2023-07-28T09:18:29;1.90;;;1.90;;
8737;SDS011;4405;49.272;8.590;2023-07-28T09:20:56;2.00;;;1.90;;
8737;SDS011;4405;49.272;8.590;2023-07-28T09:23:27;2.20;;;2.00;;
8737;SDS011;4405;49.272;8.590;2023-07-28T09:25:58;1.90;;;1.90;;
8737;SDS011;4405;49.272;8.590;2023-07-28T09:28:26;2.40;;;2.20;;
8737;SDS011;4405;49.272;8.590;2023-07-28T09:31:02;2.00;;;1.90;;
8737;SDS011;4405;49.272;8.590;2023-07-28T09:33:30;2.43;;;2.03;;
8737;SDS011;4405;49.272;8.590;2023-07-28T09:35:57;2.10;;;2.00;;
8737;SDS011;4405;49.272;8.590;2023-07-28T09:38:32;2.10;;;2.00;;
8737;SDS011;4405;49.272;8.590;2023-07-28T09:41:01;2.63;;;2.03;;
8737;SDS011;4405;49.272;8.590;2023-07-28T09:43:32;2.17;;;2.07;;
8737;SDS011;4405;49.272;8.590;2023-07-28T09:45:58;7.70;;;1.93;;
8737;SDS011;4405;49.272;8.590;2023-07-28T09:48:26;2.20;;;2.10;;
8737;SDS011;4405;49.272;8.590;2023-07-28T09:50:56;2.40;;;2.30;;
8737;SDS011;4405;49.272;8.590;2023-07-28T09:53:23;2.23;;;2.10;;
8737;SDS011;4405;49.272;8.590;2023-07-28T09:55:53;2.00;;;1.90;;
8737;SDS011;4405;49.272;8.590;2023-07-28T09:58:19;2.20;;;2.10;;
8737;SDS011;4405;49.272;8.590;2023-07-28T10:00:48;2.20;;;2.10;;
8737;SDS011;4405;49.272;8.590;2023-07-28T10:03:15;2.30;;;2.20;;
8737;SDS011;4405;49.272;8.590;2023-07-28T10:05:42;2.20;;;2.10;;
8737;SDS011;4405;49.272;8.590;2023-07-28T10:08:09;2.20;;;2.10;;
8737;SDS011;4405;49.272;8.590;2023-07-28T10:10:36;2.50;;;2.40;;
8737;SDS011;4405;49.272;8.590;2023-07-28T10:13:02;2.40;;;2.30;;
8737;SDS011;4405;49.272;8.590;2023-07-28T10:15:29;2.00;;;1.90;;
8737;SDS011;4405;49.272;8.590;2023-07-28T10:17:58;5.07;;;2.20;;
8737;SDS011;4405;49.272;8.590;2023-07-28T10:20:31;2.70;;;2.03;;
8737;SDS011;4405;49.272;8.590;2023-07-28T10:23:04;2.60;;;2.50;;
8737;SDS011;4405;49.272;8.590;2023-07-28T10:25:32;3.27;;;2.23;;
8737;SDS011;4405;49.272;8.590;2023-07-28T10:27:59;2.00;;;2.00;;
8737;SDS011;4405;49.272;8.590;2023-07-28T10:30:27;1.90;;;1.80;;
8737;SDS011;4405;49.272;8.590;2023-07-28T10:32:54;1.70;;;1.60;;
8737;SDS011;4405;49.272;8.590;2023-07-28T10:35:24;2.80;;;1.90;;
8737;SDS011;4405;49.272;8.590;2023-07-28T10:37:52;1.67;;;1.60;;
8737;SDS011;4405;49.272;8.590;2023-07-28T10:40:21;1.73;;;1.73;;
8737;SDS011;4405;49.272;8.590;2023-07-28T10:42:48;1.80;;;1.80;;
8737;SDS011;4405;49.272;8.590;2023-07-28T10:45:15;2.17;;;2.07;;
8737;SDS011;4405;49.272;8.590;2023-07-28T10:47:41;1.63;;;1.63;;
8737;SDS011;4405;49.272;8.590;2023-07-28T10:50:09;2.07;;;1.83;;
8737;SDS011;4405;49.272;8.590;2023-07-28T10:52:39;1.90;;;1.90;;
8737;SDS011;4405;49.272;8.590;2023-07-28T10:55:11;1.80;;;1.70;;
8737;SDS011;4405;49.272;8.590;2023-07-28T10:57:38;2.80;;;2.10;;
8737;SDS011;4405;49.272;8.590;2023-07-28T11:00:05;2.07;;;2.07;;
8737;SDS011;4405;49.272;8.590;2023-07-28T11:02:32;3.60;;;2.03;;
8737;SDS011;4405;49.272;8.590;2023-07-28T11:04:59;3.23;;;2.07;;
8737;SDS011;4405;49.272;8.590;2023-07-28T11:07:26;2.40;;;2.20;;
8737;SDS011;4405;49.272;8.590;2023-07-28T11:09:53;2.30;;;2.00;;
8737;SDS011;4405;49.272;8.590;2023-07-28T11:12:20;2.10;;;2.00;;
8737;SDS011;4405;49.272;8.590;2023-07-28T11:14:46;1.60;;;1.60;;
8737;SDS011;4405;49.272;8.590;2023-07-28T11:17:14;2.10;;;1.83;;
8737;SDS011;4405;49.272;8.590;2023-07-28T11:19:40;1.80;;;1.80;;
8737;SDS011;4405;49.272;8.590;2023-07-28T11:22:06;2.27;;;2.10;;
8737;SDS011;4405;49.272;8.590;2023-07-28T11:24:33;1.80;;;1.80;;
8737;SDS011;4405;49.272;8.590;2023-07-28T11:27:00;1.90;;;1.80;;
8737;SDS011;4405;49.272;8.590;2023-07-28T11:29:28;2.13;;;2.07;;
8737;SDS011;4405;49.272;8.590;2023-07-28T11:31:54;1.77;;;1.73;;
8737;SDS011;4405;49.272;8.590;2023-07-28T11:34:21;2.10;;;1.53;;
8737;SDS011;4405;49.272;8.590;2023-07-28T11:36:47;1.60;;;1.60;;
8737;SDS011;4405;49.272;8.590;2023-07-28T11:39:13;1.87;;;1.87;;
8737;SDS011;4405;49.272;8.590;2023-07-28T11:41:40;2.30;;;1.70;;
8737;SDS011;4405;49.272;8.590;2023-07-28T11:44:09;1.80;;;1.70;;
8737;SDS011;4405;49.272;8.590;2023-07-28T11:46:35;1.80;;;1.80;;
8737;SDS011;4405;49.272;8.590;2023-07-28T11:49:12;1.50;;;1.50;;
8737;SDS011;4405;49.272;8.590;2023-07-28T11:51:39;1.90;;;1.80;;
8737;SDS011;4405;49.272;8.590;2023-07-28T11:54:08;1.60;;;1.50;;
8737;SDS011;4405;49.272;8.590;2023-07-28T11:56:36;1.70;;;1.60;;
8737;SDS011;4405;49.272;8.590;2023-07-28T11:59:03;2.27;;;1.90;;
8737;SDS011;4405;49.272;8.590;2023-07-28T12:01:31;1.83;;;1.80;;
8737;SDS011;4405;49.272;8.590;2023-07-28T12:03:57;1.80;;;1.70;;
8737;SDS011;4405;49.272;8.590;2023-07-28T12:06:25;1.50;;;1.50;;
8737;SDS011;4405;49.272;8.590;2023-07-28T12:08:51;1.70;;;1.60;;
8737;SDS011;4405;49.272;8.590;2023-07-28T12:11:20;1.50;;;1.50;;
8737;SDS011;4405;49.272;8.590;2023-07-28T12:13:49;1.80;;;1.70;;
8737;SDS011;4405;49.272;8.590;2023-07-28T12:18:58;1.60;;;1.60;;
8737;SDS011;4405;49.272;8.590;2023-07-28T12:21:25;1.70;;;1.60;;
8737;SDS011;4405;49.272;8.590;2023-07-28T12:23:51;3.60;;;1.87;;
8737;SDS011;4405;49.272;8.590;2023-07-28T12:26:18;2.07;;;1.87;;
8737;SDS011;4405;49.272;8.590;2023-07-28T12:28:44;1.77;;;1.70;;
8737;SDS011;4405;49.272;8.590;2023-07-28T12:31:11;2.20;;;2.10;;
8737;SDS011;4405;49.272;8.590;2023-07-28T12:33:37;2.10;;;2.00;;
8737;SDS011;4405;49.272;8.590;2023-07-28T12:36:05;4.37;;;2.00;;
8737;SDS011;4405;49.272;8.590;2023-07-28T12:38:32;4.27;;;2.30;;
8737;SDS011;4405;49.272;8.590;2023-07-28T12:40:58;5.60;;;2.00;;
8737;SDS011;4405;49.272;8.590;2023-07-28T12:43:24;4.43;;;2.20;;
8737;SDS011;4405;49.272;8.590;2023-07-28T12:45:51;2.20;;;2.10;;
8737;SDS011;4405;49.272;8.590;2023-07-28T12:48:19;2.37;;;2.13;;
8737;SDS011;4405;49.272;8.590;2023-07-28T12:50:45;2.27;;;2.17;;
8737;SDS011;4405;49.272;8.590;2023-07-28T12:53:13;4.07;;;2.23;;
8737;SDS011;4405;49.272;8.590;2023-07-28T12:55:39;2.80;;;2.17;;
8737;SDS011;4405;49.272;8.590;2023-07-28T12:58:06;3.93;;;2.40;;
8737;SDS011;4405;49.272;8.590;2023-07-28T13:00:32;2.50;;;2.30;;
8737;SDS011;4405;49.272;8.590;2023-07-28T13:02:58;2.40;;;2.30;;
8737;SDS011;4405;49.272;8.590;2023-07-28T13:05:25;2.50;;;2.30;;
8737;SDS011;4405;49.272;8.590;2023-07-28T13:07:51;2.50;;;2.40;;
8737;SDS011;4405;49.272;8.590;2023-07-28T13:10:19;40.47;;;5.33;;
8737;SDS011;4405;49.272;8.590;2023-07-28T13:12:45;24.77;;;4.73;;
8737;SDS011;4405;49.272;8.590;2023-07-28T13:15:12;2.77;;;2.67;;
8737;SDS011;4405;49.272;8.590;2023-07-28T13:17:38;3.10;;;2.90;;
8737;SDS011;4405;49.272;8.590;2023-07-28T13:20:05;4.40;;;2.90;;
8737;SDS011;4405;49.272;8.590;2023-07-28T13:22:32;2.80;;;2.60;;
8737;SDS011;4405;49.272;8.590;2023-07-28T13:24:58;2.87;;;2.67;;
8737;SDS011;4405;49.272;8.590;2023-07-28T13:27:26;2.83;;;2.73;;
8737;SDS011;4405;49.272;8.590;2023-07-28T13:29:52;3.67;;;2.40;;
8737;SDS011;4405;49.272;8.590;2023-07-28T13:32:22;2.40;;;2.30;;
8737;SDS011;4405;49.272;8.590;2023-07-28T13:34:49;2.57;;;2.37;;
8737;SDS011;4405;49.272;8.590;2023-07-28T13:37:15;2.47;;;2.33;;
8737;SDS011;4405;49.272;8.590;2023-07-28T13:39:41;98.20;;;10.77;;
8737;SDS011;4405;49.272;8.590;2023-07-28T13:42:08;11.90;;;3.60;;
8737;SDS011;4405;49.272;8.590;2023-07-28T13:44:36;77.40;;;9.93;;
8737;SDS011;4405;49.272;8.590;2023-07-28T13:47:02;8.27;;;3.07;;
8737;SDS011;4405;49.272;8.590;2023-07-28T13:49:30;2.77;;;2.60;;
8737;SDS011;4405;49.272;8.590;2023-07-28T13:52:00;2.83;;;2.63;;
8737;SDS011;4405;49.272;8.590;2023-07-28T13:54:26;2.77;;;2.57;;
8737;SDS011;4405;49.272;8.590;2023-07-28T13:56:53;2.87;;;2.53;;
8737;SDS011;4405;49.272;8.590;2023-07-28T13:59:19;2.70;;;2.60;;
8737;SDS011;4405;49.272;8.590;2023-07-28T14:01:47;4.00;;;2.50;;
8737;SDS011;4405;49.272;8.590;2023-07-28T14:04:14;2.90;;;2.80;;
8737;SDS011;4405;49.272;8.590;2023-07-28T14:06:40;4.77;;;2.80;;
8737;SDS011;4405;49.272;8.590;2023-07-28T14:09:06;2.73;;;2.63;;
8737;SDS011;4405;49.272;8.590;2023-07-28T14:11:33;4.90;;;2.70;;
8737;SDS011;4405;49.272;8.590;2023-07-28T14:13:59;2.33;;;2.23;;
8737;SDS011;4405;49.272;8.590;2023-07-28T14:16:26;3.00;;;2.80;;
8737;SDS011;4405;49.272;8.590;2023-07-28T14:18:53;2.70;;;2.60;;
8737;SDS011;4405;49.272;8.590;2023-07-28T14:21:20;3.80;;;2.77;;
8737;SDS011;4405;49.272;8.590;2023-07-28T14:23:46;2.90;;;2.70;;
8737;SDS011;4405;49.272;8.590;2023-07-28T14:26:12;3.03;;;2.83;;
8737;SDS011;4405;49.272;8.590;2023-07-28T14:28:39;2.70;;;2.50;;
8737;SDS011;4405;49.272;8.590;2023-07-28T14:31:05;2.57;;;2.47;;
8737;SDS011;4405;49.272;8.590;2023-07-28T14:33:31;2.60;;;2.40;;
8737;SDS011;4405;49.272;8.590;2023-07-28T14:35:59;2.60;;;2.40;;
8737;SDS011;4405;49.272;8.590;2023-07-28T14:38:25;2.90;;;2.70;;
8737;SDS011;4405;49.272;8.590;2023-07-28T14:40:52;2.90;;;2.70;;
8737;SDS011;4405;49.272;8.590;2023-07-28T14:43:18;2.90;;;2.77;;
8737;SDS011;4405;49.272;8.590;2023-07-28T14:45:45;3.37;;;3.10;;
8737;SDS011;4405;49.272;8.590;2023-07-28T14:48:11;3.00;;;2.73;;
8737;SDS011;4405;49.272;8.590;2023-07-28T14:50:37;3.70;;;2.77;;
8737;SDS011;4405;49.272;8.590;2023-07-28T14:53:11;2.87;;;2.77;;
8737;SDS011;4405;49.272;8.590;2023-07-28T14:55:53;3.00;;;2.80;;
8737;SDS011;4405;49.272;8.590;2023-07-28T14:58:20;2.67;;;2.57;;
8737;SDS011;4405;49.272;8.590;2023-07-28T15:00:46;2.83;;;2.70;;
8737;SDS011;4405;49.272;8.590;2023-07-28T15:03:12;2.70;;;2.50;;
8737;SDS011;4405;49.272;8.590;2023-07-28T15:05:39;3.17;;;2.97;;
8737;SDS011;4405;49.272;8.590;2023-07-28T15:08:05;2.67;;;2.50;;
8737;SDS011;4405;49.272;8.590;2023-07-28T15:10:33;3.47;;;2.83;;
8737;SDS011;4405;49.272;8.590;2023-07-28T15:12:59;3.10;;;2.90;;
8737;SDS011;4405;49.272;8.590;2023-07-28T15:15:26;3.43;;;3.23;;